Aérodrome :
LOGIN :

S'inscrire | Disclaimer

   EN    FR    IT 

 










Légende :    VFR   VFR Marginal   IFR   IFR Intensif   IFR Très Intensif
Visi : 
Plafond : 
>= 8 km
>= 3000ft
5 à 8 km
1000 à 3000 ft
1500m à 5 km
500 à 1000 ft
800 à 1500m
200 à 500 ft
< 800m
< 200 ft
Symboles :   Orages  Brouillard  Fortes neiges  Fortes précipitations  Vent > 20 kt
SIGMETs :   Divers  Orages  Givrage  Turbulence  Onde Orograph.  Cendres Volcan.







- Altitude de l'aérodrome : 274 ft
- Code IATA : PUY


LDPL - Pula

DERNIER METAR :
  • 180230Z 08006KT 9999 FEW010 SCT055 20/18 Q1014

METARs EXPIRÉS :
  • 180200Z 08007KT 9999 FEW010 SCT055 20/18 Q1014
  • 180130Z 09007KT 9999 FEW010 SCT055 20/18 Q1014
  • 180100Z 09007KT 9999 FEW010 SCT055 20/18 Q1014
  • 180030Z 09007KT 9999 FEW010 SCT055 20/18 Q1014
  • 180000Z 08007KT 9999 FEW008 SCT050 20/18 Q1014

TAF TAF LDPL
Valide du 18 à 00h jusqu'au 19 à 00h UTC


172325Z 1800/1900 09006KT 9999 SCT045 TX20/1800Z TN16/1809Z
BECMG 1803/1805 07018KT
PROB30
TEMPO 1803/1818 TSRA SCT035 FEW050CB
TEMPO 1806/1813 07020G35KT
Pas de NOTAMs connus pour ce terrain.



MET'MAP, la Météo Aéronautique d'un coup d'oeil ! - Copyright ORBIFLY Décembre 2007 - Disclaimer

ORBIFLY MET'MAP TEAM :

Programmation & Développement : Alexandra Zaïnal
Conception & Développement : Baudouin d'Aumeries
Co-Programmation & Développement : Marc-Olivier Méhu
Soutien technique & logistique : Manuel Goepfert

Contact : metmap@orbifly.com




SOURCES & CREDITS :

   NOAA